Terminal Aerodrome Forecast
Issued by NWS

Home | Current Version | Previous Version | Graphics & Text | Print | Product List | Glossary On
Versions: 1 2 3 4 5 6 7 8 9 10 11 12 13 14 15 16 17 18 19 20 21 22 23 24
000
FTUS43 KABR 182200 AAD
TAFPIR
TAF AMD
KPIR 182228Z 1822/1918 32011KT P6SM OVC070
      TEMPO 1823/1902 BKN030
     FM190400 32026G36KT P6SM OVC060
     FM191000 33027G37KT P6SM BKN100=

USA.gov is the U.S. government's official web portal to all federal, state and local government web resources and services.